sensor_id;sensor_type;location;lat;lon;timestamp;pressure;altitude;pressure_sealevel;temperature;humidity
77086;BME280;66014;53.134;18.006;2023-05-20T00:00:16;102300.38;;;12.24;69.95
77086;BME280;66014;53.134;18.006;2023-05-20T00:03:03;102301.69;;;12.25;69.80
77086;BME280;66014;53.134;18.006;2023-05-20T00:05:30;102299.59;;;12.27;69.81
77086;BME280;66014;53.134;18.006;2023-05-20T00:07:57;102301.35;;;12.29;69.88
77086;BME280;66014;53.134;18.006;2023-05-20T00:10:23;102300.14;;;12.30;69.96
77086;BME280;66014;53.134;18.006;2023-05-20T00:12:50;102296.60;;;12.30;70.23
77086;BME280;66014;53.134;18.006;2023-05-20T00:15:16;102295.45;;;12.27;70.25
77086;BME280;66014;53.134;18.006;2023-05-20T00:17:43;102291.19;;;12.27;70.41
77086;BME280;66014;53.134;18.006;2023-05-20T00:20:09;102288.05;;;12.25;70.50
77086;BME280;66014;53.134;18.006;2023-05-20T00:22:36;102290.23;;;12.22;70.61
77086;BME280;66014;53.134;18.006;2023-05-20T00:25:03;102291.75;;;12.21;70.66
77086;BME280;66014;53.134;18.006;2023-05-20T00:27:30;102289.41;;;12.20;70.92
77086;BME280;66014;53.134;18.006;2023-05-20T00:29:56;102290.59;;;12.19;70.96
77086;BME280;66014;53.134;18.006;2023-05-20T00:32:23;102286.52;;;12.17;71.15
77086;BME280;66014;53.134;18.006;2023-05-20T00:34:57;102287.45;;;12.14;71.18
77086;BME280;66014;53.134;18.006;2023-05-20T00:37:24;102284.09;;;12.14;71.15
77086;BME280;66014;53.134;18.006;2023-05-20T00:39:51;102282.23;;;12.15;71.27
77086;BME280;66014;53.134;18.006;2023-05-20T00:42:26;102282.20;;;12.14;71.46
77086;BME280;66014;53.134;18.006;2023-05-20T00:44:54;102282.08;;;12.11;71.54
77086;BME280;66014;53.134;18.006;2023-05-20T00:47:32;102278.02;;;12.09;71.51
77086;BME280;66014;53.134;18.006;2023-05-20T00:49:59;102277.96;;;12.08;71.52
77086;BME280;66014;53.134;18.006;2023-05-20T00:52:30;102273.64;;;12.08;71.52
77086;BME280;66014;53.134;18.006;2023-05-20T00:54:58;102268.23;;;12.09;71.62
77086;BME280;66014;53.134;18.006;2023-05-20T00:57:25;102272.39;;;12.10;71.80
77086;BME280;66014;53.134;18.006;2023-05-20T00:59:52;102269.57;;;12.08;71.87
77086;BME280;66014;53.134;18.006;2023-05-20T01:02:19;102271.06;;;12.06;71.92
77086;BME280;66014;53.134;18.006;2023-05-20T01:04:46;102270.48;;;12.04;72.04
77086;BME280;66014;53.134;18.006;2023-05-20T01:07:16;102271.42;;;12.02;71.96
77086;BME280;66014;53.134;18.006;2023-05-20T01:09:44;102270.41;;;12.01;72.19
77086;BME280;66014;53.134;18.006;2023-05-20T01:12:21;102269.24;;;11.99;72.22
77086;BME280;66014;53.134;18.006;2023-05-20T01:14:50;102270.02;;;11.96;72.20
77086;BME280;66014;53.134;18.006;2023-05-20T01:17:23;102269.71;;;11.96;72.28
77086;BME280;66014;53.134;18.006;2023-05-20T01:19:53;102272.14;;;11.96;72.25
77086;BME280;66014;53.134;18.006;2023-05-20T01:22:28;102268.84;;;11.96;72.25
77086;BME280;66014;53.134;18.006;2023-05-20T01:24:55;102269.46;;;11.95;72.27
77086;BME280;66014;53.134;18.006;2023-05-20T01:27:22;102269.39;;;11.93;72.26
77086;BME280;66014;53.134;18.006;2023-05-20T01:29:50;102267.85;;;11.93;72.32
77086;BME280;66014;53.134;18.006;2023-05-20T01:32:21;102274.43;;;11.93;72.46
77086;BME280;66014;53.134;18.006;2023-05-20T01:34:51;102275.39;;;11.92;72.45
77086;BME280;66014;53.134;18.006;2023-05-20T01:37:18;102278.39;;;11.93;72.41
77086;BME280;66014;53.134;18.006;2023-05-20T01:39:46;102275.34;;;11.91;72.57
77086;BME280;66014;53.134;18.006;2023-05-20T01:42:14;102269.00;;;11.88;72.57
77086;BME280;66014;53.134;18.006;2023-05-20T01:44:41;102263.13;;;11.88;72.38
77086;BME280;66014;53.134;18.006;2023-05-20T01:47:08;102264.61;;;11.90;72.54
77086;BME280;66014;53.134;18.006;2023-05-20T01:49:34;102262.91;;;11.89;72.52
77086;BME280;66014;53.134;18.006;2023-05-20T01:52:01;102265.37;;;11.89;72.45
77086;BME280;66014;53.134;18.006;2023-05-20T01:54:27;102263.41;;;11.89;72.29
77086;BME280;66014;53.134;18.006;2023-05-20T01:56:54;102263.02;;;11.90;72.42
77086;BME280;66014;53.134;18.006;2023-05-20T01:59:21;102265.66;;;11.90;72.42
77086;BME280;66014;53.134;18.006;2023-05-20T02:01:47;102265.84;;;11.92;72.34
77086;BME280;66014;53.134;18.006;2023-05-20T02:04:14;102261.94;;;11.92;72.35
77086;BME280;66014;53.134;18.006;2023-05-20T02:06:40;102262.54;;;11.92;72.31
77086;BME280;66014;53.134;18.006;2023-05-20T02:09:07;102267.61;;;11.92;72.36
77086;BME280;66014;53.134;18.006;2023-05-20T02:11:34;102266.27;;;11.91;72.22
77086;BME280;66014;53.134;18.006;2023-05-20T02:14:03;102263.77;;;11.91;72.30
77086;BME280;66014;53.134;18.006;2023-05-20T02:16:30;102262.78;;;11.90;72.22
77086;BME280;66014;53.134;18.006;2023-05-20T02:18:56;102262.60;;;11.90;72.13
77086;BME280;66014;53.134;18.006;2023-05-20T02:21:24;102260.05;;;11.91;72.06
77086;BME280;66014;53.134;18.006;2023-05-20T02:23:51;102261.41;;;11.92;72.02
77086;BME280;66014;53.134;18.006;2023-05-20T02:26:18;102263.09;;;11.91;72.23
77086;BME280;66014;53.134;18.006;2023-05-20T02:28:47;102262.09;;;11.88;72.18
77086;BME280;66014;53.134;18.006;2023-05-20T02:31:15;102262.17;;;11.87;72.23
77086;BME280;66014;53.134;18.006;2023-05-20T02:33:43;102258.23;;;11.84;72.36
77086;BME280;66014;53.134;18.006;2023-05-20T02:36:10;102256.67;;;11.82;72.27
77086;BME280;66014;53.134;18.006;2023-05-20T02:38:36;102252.69;;;11.81;72.33
77086;BME280;66014;53.134;18.006;2023-05-20T02:41:03;102255.05;;;11.80;72.45
77086;BME280;66014;53.134;18.006;2023-05-20T02:43:31;102249.05;;;11.78;72.45
77086;BME280;66014;53.134;18.006;2023-05-20T02:45:57;102247.66;;;11.76;72.51
77086;BME280;66014;53.134;18.006;2023-05-20T02:48:24;102252.20;;;11.75;72.46
77086;BME280;66014;53.134;18.006;2023-05-20T02:50:50;102251.01;;;11.74;72.36
77086;BME280;66014;53.134;18.006;2023-05-20T02:53:18;102255.23;;;11.74;72.42
77086;BME280;66014;53.134;18.006;2023-05-20T02:55:45;102256.95;;;11.75;72.30
77086;BME280;66014;53.134;18.006;2023-05-20T02:58:15;102257.06;;;11.76;72.40
77086;BME280;66014;53.134;18.006;2023-05-20T03:00:42;102256.72;;;11.76;72.34
77086;BME280;66014;53.134;18.006;2023-05-20T03:03:09;102254.11;;;11.77;72.32
77086;BME280;66014;53.134;18.006;2023-05-20T03:05:36;102254.94;;;11.78;72.34
77086;BME280;66014;53.134;18.006;2023-05-20T03:08:07;102254.52;;;11.80;72.16
77086;BME280;66014;53.134;18.006;2023-05-20T03:10:36;102255.30;;;11.83;72.19
77086;BME280;66014;53.134;18.006;2023-05-20T03:13:04;102257.61;;;11.85;72.11
77086;BME280;66014;53.134;18.006;2023-05-20T03:15:34;102260.55;;;11.86;72.03
77086;BME280;66014;53.134;18.006;2023-05-20T03:18:01;102260.02;;;11.86;72.04
77086;BME280;66014;53.134;18.006;2023-05-20T03:20:27;102259.65;;;11.86;72.02
77086;BME280;66014;53.134;18.006;2023-05-20T03:22:55;102261.95;;;11.86;72.04
77086;BME280;66014;53.134;18.006;2023-05-20T03:25:23;102265.23;;;11.83;71.96
77086;BME280;66014;53.134;18.006;2023-05-20T03:27:50;102265.65;;;11.81;72.04
77086;BME280;66014;53.134;18.006;2023-05-20T03:30:16;102260.72;;;11.80;72.05
77086;BME280;66014;53.134;18.006;2023-05-20T03:32:43;102269.52;;;11.81;72.03
77086;BME280;66014;53.134;18.006;2023-05-20T03:35:09;102265.58;;;11.82;72.01
77086;BME280;66014;53.134;18.006;2023-05-20T03:37:36;102270.11;;;11.82;71.93
77086;BME280;66014;53.134;18.006;2023-05-20T03:40:03;102268.15;;;11.83;72.05
77086;BME280;66014;53.134;18.006;2023-05-20T03:42:32;102272.45;;;11.82;72.02
77086;BME280;66014;53.134;18.006;2023-05-20T03:44:59;102268.92;;;11.82;71.96
77086;BME280;66014;53.134;18.006;2023-05-20T03:47:26;102272.55;;;11.83;71.91
77086;BME280;66014;53.134;18.006;2023-05-20T03:49:53;102275.05;;;11.85;71.89
77086;BME280;66014;53.134;18.006;2023-05-20T03:52:19;102279.48;;;11.85;71.81
77086;BME280;66014;53.134;18.006;2023-05-20T03:54:46;102280.64;;;11.86;71.79
77086;BME280;66014;53.134;18.006;2023-05-20T03:57:13;102275.61;;;11.87;71.77
77086;BME280;66014;53.134;18.006;2023-05-20T03:59:39;102276.30;;;11.88;71.73
77086;BME280;66014;53.134;18.006;2023-05-20T04:02:06;102274.43;;;11.89;71.71
77086;BME280;66014;53.134;18.006;2023-05-20T04:04:33;102279.08;;;11.91;71.70
77086;BME280;66014;53.134;18.006;2023-05-20T04:06:59;102281.70;;;11.93;71.66
77086;BME280;66014;53.134;18.006;2023-05-20T04:09:26;102279.48;;;11.96;71.57
77086;BME280;66014;53.134;18.006;2023-05-20T04:11:53;102281.65;;;11.99;71.52
77086;BME280;66014;53.134;18.006;2023-05-20T04:14:19;102282.59;;;12.02;71.33
77086;BME280;66014;53.134;18.006;2023-05-20T04:16:46;102286.90;;;12.02;71.32
77086;BME280;66014;53.134;18.006;2023-05-20T04:19:12;102284.52;;;12.01;71.40
77086;BME280;66014;53.134;18.006;2023-05-20T04:21:38;102287.86;;;12.01;71.35
77086;BME280;66014;53.134;18.006;2023-05-20T04:24:05;102280.48;;;12.04;71.34
77086;BME280;66014;53.134;18.006;2023-05-20T04:26:32;102280.90;;;12.09;71.20
77086;BME280;66014;53.134;18.006;2023-05-20T04:28:59;102282.45;;;12.13;71.08
77086;BME280;66014;53.134;18.006;2023-05-20T04:31:27;102280.20;;;12.18;70.94
77086;BME280;66014;53.134;18.006;2023-05-20T04:33:53;102284.95;;;12.22;70.93
77086;BME280;66014;53.134;18.006;2023-05-20T04:36:20;102281.51;;;12.26;70.76
77086;BME280;66014;53.134;18.006;2023-05-20T04:38:47;102279.61;;;12.29;70.74
77086;BME280;66014;53.134;18.006;2023-05-20T04:41:14;102278.30;;;12.31;70.79
77086;BME280;66014;53.134;18.006;2023-05-20T04:43:41;102273.50;;;12.33;70.60
77086;BME280;66014;53.134;18.006;2023-05-20T04:46:08;102271.22;;;12.35;70.48
77086;BME280;66014;53.134;18.006;2023-05-20T04:48:34;102277.71;;;12.36;70.51
77086;BME280;66014;53.134;18.006;2023-05-20T04:51:01;102276.74;;;12.38;70.42
77086;BME280;66014;53.134;18.006;2023-05-20T04:53:28;102277.89;;;12.43;70.40
77086;BME280;66014;53.134;18.006;2023-05-20T04:55:56;102277.10;;;12.47;70.12
77086;BME280;66014;53.134;18.006;2023-05-20T04:58:22;102280.79;;;12.49;70.17
77086;BME280;66014;53.134;18.006;2023-05-20T05:00:51;102279.38;;;12.51;70.12
77086;BME280;66014;53.134;18.006;2023-05-20T05:03:19;102280.82;;;12.53;70.04
77086;BME280;66014;53.134;18.006;2023-05-20T05:05:47;102282.21;;;12.58;70.02
77086;BME280;66014;53.134;18.006;2023-05-20T05:08:14;102278.48;;;12.65;69.88
77086;BME280;66014;53.134;18.006;2023-05-20T05:10:41;102280.91;;;12.75;69.76
77086;BME280;66014;53.134;18.006;2023-05-20T05:13:10;102281.75;;;12.84;69.58
77086;BME280;66014;53.134;18.006;2023-05-20T05:15:37;102282.63;;;12.93;69.41
77086;BME280;66014;53.134;18.006;2023-05-20T05:18:04;102280.97;;;13.01;69.23
77086;BME280;66014;53.134;18.006;2023-05-20T05:20:30;102284.83;;;13.08;69.11
77086;BME280;66014;53.134;18.006;2023-05-20T05:22:57;102284.45;;;13.16;68.92
77086;BME280;66014;53.134;18.006;2023-05-20T05:25:23;102285.52;;;13.23;68.70
77086;BME280;66014;53.134;18.006;2023-05-20T05:27:50;102288.09;;;13.29;68.59
77086;BME280;66014;53.134;18.006;2023-05-20T05:30:16;102286.85;;;13.35;68.51
77086;BME280;66014;53.134;18.006;2023-05-20T05:32:43;102284.96;;;13.43;68.32
77086;BME280;66014;53.134;18.006;2023-05-20T05:35:10;102282.81;;;13.50;68.22
77086;BME280;66014;53.134;18.006;2023-05-20T05:37:36;102281.82;;;13.58;67.95
77086;BME280;66014;53.134;18.006;2023-05-20T05:40:03;102281.84;;;13.65;67.69
77086;BME280;66014;53.134;18.006;2023-05-20T05:42:30;102283.21;;;13.69;67.39
77086;BME280;66014;53.134;18.006;2023-05-20T05:44:56;102283.35;;;13.72;67.20
77086;BME280;66014;53.134;18.006;2023-05-20T05:47:22;102279.47;;;13.75;67.08
77086;BME280;66014;53.134;18.006;2023-05-20T05:49:49;102279.05;;;13.78;66.82
77086;BME280;66014;53.134;18.006;2023-05-20T05:52:15;102277.11;;;13.79;66.80
77086;BME280;66014;53.134;18.006;2023-05-20T05:54:42;102278.59;;;13.82;66.71
77086;BME280;66014;53.134;18.006;2023-05-20T05:57:08;102278.98;;;13.85;66.53
77086;BME280;66014;53.134;18.006;2023-05-20T05:59:37;102282.80;;;13.89;66.40
77086;BME280;66014;53.134;18.006;2023-05-20T06:02:03;102282.59;;;13.95;66.43
77086;BME280;66014;53.134;18.006;2023-05-20T06:04:30;102285.58;;;14.00;66.03
77086;BME280;66014;53.134;18.006;2023-05-20T06:06:57;102284.91;;;14.01;65.81
77086;BME280;66014;53.134;18.006;2023-05-20T06:09:23;102286.58;;;14.04;65.88
77086;BME280;66014;53.134;18.006;2023-05-20T06:11:50;102285.50;;;14.08;65.76
77086;BME280;66014;53.134;18.006;2023-05-20T06:14:16;102287.96;;;14.11;65.52
77086;BME280;66014;53.134;18.006;2023-05-20T06:16:42;102288.65;;;14.15;65.58
77086;BME280;66014;53.134;18.006;2023-05-20T06:19:09;102292.06;;;14.22;65.47
77086;BME280;66014;53.134;18.006;2023-05-20T06:21:35;102288.03;;;14.28;65.21
77086;BME280;66014;53.134;18.006;2023-05-20T06:24:02;102285.73;;;14.31;65.00
77086;BME280;66014;53.134;18.006;2023-05-20T06:26:29;102287.65;;;14.31;64.96
77086;BME280;66014;53.134;18.006;2023-05-20T06:28:55;102289.56;;;14.35;64.93
77086;BME280;66014;53.134;18.006;2023-05-20T06:31:22;102292.86;;;14.39;64.68
77086;BME280;66014;53.134;18.006;2023-05-20T06:33:49;102293.74;;;14.41;64.60
77086;BME280;66014;53.134;18.006;2023-05-20T06:36:16;102292.30;;;14.43;64.36
77086;BME280;66014;53.134;18.006;2023-05-20T06:38:42;102289.33;;;14.45;64.35
77086;BME280;66014;53.134;18.006;2023-05-20T06:41:10;102289.33;;;14.51;64.23
77086;BME280;66014;53.134;18.006;2023-05-20T06:43:37;102291.62;;;14.59;64.12
77086;BME280;66014;53.134;18.006;2023-05-20T06:46:04;102293.59;;;14.69;63.81
77086;BME280;66014;53.134;18.006;2023-05-20T06:48:30;102295.45;;;14.74;63.60
77086;BME280;66014;53.134;18.006;2023-05-20T06:50:58;102295.55;;;14.78;63.48
77086;BME280;66014;53.134;18.006;2023-05-20T06:53:27;102295.34;;;14.84;63.43
77086;BME280;66014;53.134;18.006;2023-05-20T06:55:54;102295.98;;;14.89;63.27
77086;BME280;66014;53.134;18.006;2023-05-20T06:58:21;102295.19;;;14.93;63.19
77086;BME280;66014;53.134;18.006;2023-05-20T07:00:48;102294.45;;;15.01;63.07
77086;BME280;66014;53.134;18.006;2023-05-20T07:03:14;102291.98;;;15.09;62.68
77086;BME280;66014;53.134;18.006;2023-05-20T07:05:41;102288.96;;;15.15;62.57
77086;BME280;66014;53.134;18.006;2023-05-20T07:08:07;102283.64;;;15.23;62.36
77086;BME280;66014;53.134;18.006;2023-05-20T07:10:34;102285.73;;;15.25;62.00
77086;BME280;66014;53.134;18.006;2023-05-20T07:13:00;102284.83;;;15.29;61.97
77086;BME280;66014;53.134;18.006;2023-05-20T07:15:27;102280.50;;;15.29;61.90
77086;BME280;66014;53.134;18.006;2023-05-20T07:17:53;102279.76;;;15.34;62.04
77086;BME280;66014;53.134;18.006;2023-05-20T07:20:20;102280.91;;;15.43;61.71
77086;BME280;66014;53.134;18.006;2023-05-20T07:22:47;102280.00;;;15.46;61.45
77086;BME280;66014;53.134;18.006;2023-05-20T07:25:16;102272.00;;;15.52;61.28
77086;BME280;66014;53.134;18.006;2023-05-20T07:27:42;102269.80;;;15.60;61.29
77086;BME280;66014;53.134;18.006;2023-05-20T07:30:09;102270.86;;;15.70;61.06
77086;BME280;66014;53.134;18.006;2023-05-20T07:32:36;102266.76;;;15.76;60.81
77086;BME280;66014;53.134;18.006;2023-05-20T07:35:03;102266.74;;;15.81;60.64
77086;BME280;66014;53.134;18.006;2023-05-20T07:37:30;102263.06;;;15.88;60.69
77086;BME280;66014;53.134;18.006;2023-05-20T07:39:56;102261.25;;;15.99;60.44
77086;BME280;66014;53.134;18.006;2023-05-20T07:42:23;102262.70;;;16.13;60.19
77086;BME280;66014;53.134;18.006;2023-05-20T07:44:49;102257.46;;;16.29;59.87
77086;BME280;66014;53.134;18.006;2023-05-20T07:47:16;102257.06;;;16.44;59.82
77086;BME280;66014;53.134;18.006;2023-05-20T07:49:42;102257.96;;;16.61;59.52
77086;BME280;66014;53.134;18.006;2023-05-20T07:52:09;102258.52;;;16.78;59.28
77086;BME280;66014;53.134;18.006;2023-05-20T07:54:36;102261.94;;;16.90;58.55
77086;BME280;66014;53.134;18.006;2023-05-20T07:57:03;102258.47;;;16.98;58.45
77086;BME280;66014;53.134;18.006;2023-05-20T07:59:31;102257.88;;;17.06;58.26
77086;BME280;66014;53.134;18.006;2023-05-20T08:02:00;102258.00;;;17.15;58.14
77086;BME280;66014;53.134;18.006;2023-05-20T08:04:26;102256.48;;;17.28;57.78
77086;BME280;66014;53.134;18.006;2023-05-20T08:06:53;102253.75;;;17.40;57.49
77086;BME280;66014;53.134;18.006;2023-05-20T08:09:20;102251.63;;;17.50;57.28
77086;BME280;66014;53.134;18.006;2023-05-20T08:11:47;102252.17;;;17.59;57.34
77086;BME280;66014;53.134;18.006;2023-05-20T08:14:13;102245.75;;;17.67;56.47
77086;BME280;66014;53.134;18.006;2023-05-20T08:16:41;102251.30;;;17.62;56.80
77086;BME280;66014;53.134;18.006;2023-05-20T08:19:07;102243.31;;;17.68;56.93
77086;BME280;66014;53.134;18.006;2023-05-20T08:21:34;102241.98;;;17.76;56.64
77086;BME280;66014;53.134;18.006;2023-05-20T08:24:00;102239.80;;;17.86;56.61
77086;BME280;66014;53.134;18.006;2023-05-20T08:26:27;102241.09;;;17.98;56.47
77086;BME280;66014;53.134;18.006;2023-05-20T08:28:53;102234.45;;;18.09;56.13
77086;BME280;66014;53.134;18.006;2023-05-20T08:31:20;102239.83;;;18.18;55.89
77086;BME280;66014;53.134;18.006;2023-05-20T08:33:46;102240.83;;;18.27;55.71
77086;BME280;66014;53.134;18.006;2023-05-20T08:36:13;102240.45;;;18.39;55.71
77086;BME280;66014;53.134;18.006;2023-05-20T08:38:39;102242.56;;;18.56;55.46
77086;BME280;66014;53.134;18.006;2023-05-20T08:41:06;102241.65;;;18.76;55.17
77086;BME280;66014;53.134;18.006;2023-05-20T08:43:33;102238.95;;;18.92;54.86
77086;BME280;66014;53.134;18.006;2023-05-20T08:46:01;102235.34;;;19.05;54.38
77086;BME280;66014;53.134;18.006;2023-05-20T08:48:30;102230.61;;;19.20;54.24
77086;BME280;66014;53.134;18.006;2023-05-20T08:51:02;102224.52;;;19.43;54.02
77086;BME280;66014;53.134;18.006;2023-05-20T08:53:34;102221.30;;;19.73;53.31
77086;BME280;66014;53.134;18.006;2023-05-20T08:56:01;102220.47;;;19.94;52.76
77086;BME280;66014;53.134;18.006;2023-05-20T08:58:29;102213.98;;;20.24;52.43
77086;BME280;66014;53.134;18.006;2023-05-20T09:00:56;102210.82;;;20.57;51.36
77086;BME280;66014;53.134;18.006;2023-05-20T09:03:24;102211.89;;;20.89;51.23
77086;BME280;66014;53.134;18.006;2023-05-20T09:06:05;102209.42;;;21.33;50.45
77086;BME280;66014;53.134;18.006;2023-05-20T09:08:32;102205.80;;;21.65;49.28
77086;BME280;66014;53.134;18.006;2023-05-20T09:10:59;102204.21;;;22.33;48.99
77086;BME280;66014;53.134;18.006;2023-05-20T09:13:28;102203.92;;;23.54;47.14
77086;BME280;66014;53.134;18.006;2023-05-20T09:15:58;102201.12;;;24.47;45.41
77086;BME280;66014;53.134;18.006;2023-05-20T09:18:25;102204.20;;;25.29;44.95
77086;BME280;66014;53.134;18.006;2023-05-20T09:20:52;102201.39;;;26.31;42.58
77086;BME280;66014;53.134;18.006;2023-05-20T09:23:19;102199.89;;;26.74;42.00
77086;BME280;66014;53.134;18.006;2023-05-20T09:25:51;102195.84;;;27.80;40.67
77086;BME280;66014;53.134;18.006;2023-05-20T09:28:19;102190.27;;;28.93;38.98
77086;BME280;66014;53.134;18.006;2023-05-20T09:30:48;102186.38;;;29.85;37.17
77086;BME280;66014;53.134;18.006;2023-05-20T09:33:15;102186.12;;;30.67;36.16
77086;BME280;66014;53.134;18.006;2023-05-20T09:35:42;102180.60;;;31.52;35.04
77086;BME280;66014;53.134;18.006;2023-05-20T09:38:10;102170.00;;;32.23;33.04
77086;BME280;66014;53.134;18.006;2023-05-20T09:40:37;102163.50;;;32.67;32.20
77086;BME280;66014;53.134;18.006;2023-05-20T09:43:09;102162.31;;;33.04;31.50
77086;BME280;66014;53.134;18.006;2023-05-20T09:45:37;102161.95;;;33.48;30.30
77086;BME280;66014;53.134;18.006;2023-05-20T09:48:06;102160.00;;;33.69;29.46
77086;BME280;66014;53.134;18.006;2023-05-20T09:50:34;102156.95;;;33.24;29.24
77086;BME280;66014;53.134;18.006;2023-05-20T09:53:02;102157.38;;;32.21;29.52
77086;BME280;66014;53.134;18.006;2023-05-20T09:55:29;102159.99;;;31.37;30.57
77086;BME280;66014;53.134;18.006;2023-05-20T09:57:58;102160.17;;;31.33;29.90
77086;BME280;66014;53.134;18.006;2023-05-20T10:00:27;102158.53;;;31.53;29.10
77086;BME280;66014;53.134;18.006;2023-05-20T10:02:54;102162.28;;;31.64;28.77
77086;BME280;66014;53.134;18.006;2023-05-20T10:05:23;102167.66;;;31.74;29.33
77086;BME280;66014;53.134;18.006;2023-05-20T10:15:44;102162.80;;;31.29;28.37
77086;BME280;66014;53.134;18.006;2023-05-20T10:20:50;102158.21;;;30.85;28.91
77086;BME280;66014;53.134;18.006;2023-05-20T10:23:29;102152.10;;;30.78;29.12
77086;BME280;66014;53.134;18.006;2023-05-20T10:25:57;102150.38;;;31.11;28.78
77086;BME280;66014;53.134;18.006;2023-05-20T10:28:29;102144.46;;;31.41;28.41
77086;BME280;66014;53.134;18.006;2023-05-20T10:30:57;102139.94;;;30.99;28.78
77086;BME280;66014;53.134;18.006;2023-05-20T10:33:25;102136.85;;;31.08;28.48
77086;BME280;66014;53.134;18.006;2023-05-20T10:35:59;102134.64;;;31.51;28.40
77086;BME280;66014;53.134;18.006;2023-05-20T10:38:26;102131.30;;;32.22;27.66
77086;BME280;66014;53.134;18.006;2023-05-20T10:40:53;102131.77;;;32.88;26.99
77086;BME280;66014;53.134;18.006;2023-05-20T10:43:29;102130.90;;;33.63;26.16
77086;BME280;66014;53.134;18.006;2023-05-20T10:45:56;102126.83;;;34.25;25.66
77086;BME280;66014;53.134;18.006;2023-05-20T10:48:31;102129.09;;;34.74;25.14
77086;BME280;66014;53.134;18.006;2023-05-20T10:51:00;102132.77;;;35.36;24.32
77086;BME280;66014;53.134;18.006;2023-05-20T10:53:37;102126.25;;;35.96;23.50
77086;BME280;66014;53.134;18.006;2023-05-20T10:56:04;102130.34;;;35.70;23.14
77086;BME280;66014;53.134;18.006;2023-05-20T10:58:38;102130.61;;;34.99;23.99
77086;BME280;66014;53.134;18.006;2023-05-20T11:01:05;102125.94;;;34.47;24.41
77086;BME280;66014;53.134;18.006;2023-05-20T11:03:32;102120.58;;;33.93;24.51
77086;BME280;66014;53.134;18.006;2023-05-20T11:06:00;102112.80;;;34.09;24.58
77086;BME280;66014;53.134;18.006;2023-05-20T11:08:32;102113.88;;;34.77;24.12
77086;BME280;66014;53.134;18.006;2023-05-20T11:11:00;102111.29;;;35.56;23.26
77086;BME280;66014;53.134;18.006;2023-05-20T11:13:26;102108.52;;;35.96;22.63
77086;BME280;66014;53.134;18.006;2023-05-20T11:15:53;102102.03;;;36.10;22.59
77086;BME280;66014;53.134;18.006;2023-05-20T11:18:20;102102.50;;;36.56;22.23
77086;BME280;66014;53.134;18.006;2023-05-20T11:20:47;102098.60;;;36.38;22.35
77086;BME280;66014;53.134;18.006;2023-05-20T11:23:14;102099.73;;;35.15;22.78
77086;BME280;66014;53.134;18.006;2023-05-20T11:25:41;102096.21;;;33.88;23.83
77086;BME280;66014;53.134;18.006;2023-05-20T11:28:11;102100.58;;;33.07;24.55
77086;BME280;66014;53.134;18.006;2023-05-20T11:30:41;102097.64;;;32.42;25.19
77086;BME280;66014;53.134;18.006;2023-05-20T11:33:11;102092.15;;;31.62;26.04
77086;BME280;66014;53.134;18.006;2023-05-20T11:35:46;102093.63;;;30.85;26.93
77086;BME280;66014;53.134;18.006;2023-05-20T11:38:14;102091.23;;;30.04;27.88
77086;BME280;66014;53.134;18.006;2023-05-20T11:40:52;102092.23;;;29.33;28.87
77086;BME280;66014;53.134;18.006;2023-05-20T11:43:20;102089.42;;;29.12;29.32
77086;BME280;66014;53.134;18.006;2023-05-20T11:45:52;102088.74;;;29.29;29.43
77086;BME280;66014;53.134;18.006;2023-05-20T11:48:20;102080.77;;;29.34;29.61
77086;BME280;66014;53.134;18.006;2023-05-20T11:50:47;102083.73;;;29.26;29.83
77086;BME280;66014;53.134;18.006;2023-05-20T11:53:18;102081.27;;;29.49;29.82
77086;BME280;66014;53.134;18.006;2023-05-20T11:55:51;102082.17;;;29.38;29.91
77086;BME280;66014;53.134;18.006;2023-05-20T11:58:29;102080.83;;;29.01;30.29
77086;BME280;66014;53.134;18.006;2023-05-20T12:00:56;102083.55;;;28.65;30.78
77086;BME280;66014;53.134;18.006;2023-05-20T12:03:23;102081.48;;;28.73;30.87
77086;BME280;66014;53.134;18.006;2023-05-20T12:05:50;102085.89;;;28.89;30.85
77086;BME280;66014;53.134;18.006;2023-05-20T12:08:17;102079.07;;;28.52;31.22
77086;BME280;66014;53.134;18.006;2023-05-20T12:10:44;102078.71;;;27.97;32.01
77086;BME280;66014;53.134;18.006;2023-05-20T12:13:11;102078.52;;;27.58;32.32
77086;BME280;66014;53.134;18.006;2023-05-20T12:15:39;102078.31;;;27.59;32.35
77086;BME280;66014;53.134;18.006;2023-05-20T12:18:06;102075.54;;;27.44;32.73
77086;BME280;66014;53.134;18.006;2023-05-20T12:20:32;102075.34;;;27.59;32.88
77086;BME280;66014;53.134;18.006;2023-05-20T12:23:00;102072.15;;;27.74;32.87
77086;BME280;66014;53.134;18.006;2023-05-20T12:25:27;102072.98;;;27.70;32.99
77086;BME280;66014;53.134;18.006;2023-05-20T12:27:54;102071.66;;;27.41;33.24
77086;BME280;66014;53.134;18.006;2023-05-20T12:30:22;102070.71;;;27.43;33.45
77086;BME280;66014;53.134;18.006;2023-05-20T12:32:50;102070.80;;;27.40;33.43
77086;BME280;66014;53.134;18.006;2023-05-20T12:35:24;102064.91;;;27.35;33.83
77086;BME280;66014;53.134;18.006;2023-05-20T12:37:51;102055.09;;;27.85;33.42
77086;BME280;66014;53.134;18.006;2023-05-20T12:40:18;102053.80;;;28.60;32.80
77086;BME280;66014;53.134;18.006;2023-05-20T12:42:44;102049.08;;;29.16;32.10
77086;BME280;66014;53.134;18.006;2023-05-20T12:45:11;102046.04;;;29.11;31.93
77086;BME280;66014;53.134;18.006;2023-05-20T12:47:38;102050.46;;;29.01;31.97
77086;BME280;66014;53.134;18.006;2023-05-20T12:50:05;102052.73;;;28.93;32.08
77086;BME280;66014;53.134;18.006;2023-05-20T12:52:33;102050.95;;;28.86;31.87